Terminal Aerodrome Forecast
Issued by NWS Goodland, KS

Home | Current Version | Previous Version | Text Only | Print | Product List | Glossary On
Versions: 1 2 3 4 5 6 7 8 9 10 11 12 13
000
FTUS43 KGLD 201740
TAFGLD
TAF
KGLD 201740Z 2018/2118 36008KT P6SM FEW250
     FM210500 05008KT P6SM SCT003 BKN015
      TEMPO 2106/2108 BKN008
     FM210800 02009KT P6SM BKN003
     FM211500 02013G21KT P6SM -SN OVC003=

USA.gov is the U.S. government's official web portal to all federal, state and local government web resources and services.